sensor_id;sensor_type;location;lat;lon;timestamp;P1;durP1;ratioP1;P2;durP2;ratioP2
16133;SDS011;8172;45.018;5.972;2023-05-19T00:03:17;73.70;;;9.80;;
16133;SDS011;8172;45.018;5.972;2023-05-19T00:08:29;109.03;;;10.80;;
16133;SDS011;8172;45.018;5.972;2023-05-19T00:13:41;189.90;;;11.43;;
16133;SDS011;8172;45.018;5.972;2023-05-19T00:18:50;57.13;;;9.43;;
16133;SDS011;8172;45.018;5.972;2023-05-19T00:23:58;76.67;;;9.63;;
16133;SDS011;8172;45.018;5.972;2023-05-19T00:29:06;55.27;;;8.87;;
16133;SDS011;8172;45.018;5.972;2023-05-19T00:34:13;10.03;;;8.00;;
16133;SDS011;8172;45.018;5.972;2023-05-19T00:39:20;40.10;;;9.10;;
16133;SDS011;8172;45.018;5.972;2023-05-19T00:44:28;22.30;;;7.77;;
16133;SDS011;8172;45.018;5.972;2023-05-19T00:49:37;8.60;;;7.20;;
16133;SDS011;8172;45.018;5.972;2023-05-19T00:54:45;14.40;;;7.53;;
16133;SDS011;8172;45.018;5.972;2023-05-19T00:59:52;21.17;;;7.73;;
16133;SDS011;8172;45.018;5.972;2023-05-19T01:05:00;34.60;;;7.77;;
16133;SDS011;8172;45.018;5.972;2023-05-19T01:10:08;17.30;;;6.70;;
16133;SDS011;8172;45.018;5.972;2023-05-19T01:15:16;13.77;;;7.30;;
16133;SDS011;8172;45.018;5.972;2023-05-19T01:20:26;7.77;;;6.30;;
16133;SDS011;8172;45.018;5.972;2023-05-19T01:30:44;7.93;;;5.90;;
16133;SDS011;8172;45.018;5.972;2023-05-19T01:35:54;8.13;;;6.10;;
16133;SDS011;8172;45.018;5.972;2023-05-19T01:41:03;8.67;;;6.33;;
16133;SDS011;8172;45.018;5.972;2023-05-19T01:46:11;8.03;;;5.97;;
16133;SDS011;8172;45.018;5.972;2023-05-19T01:51:20;13.47;;;9.10;;
16133;SDS011;8172;45.018;5.972;2023-05-19T01:56:33;37.83;;;12.03;;
16133;SDS011;8172;45.018;5.972;2023-05-19T02:01:42;91.23;;;14.83;;
16133;SDS011;8172;45.018;5.972;2023-05-19T02:12:05;39.17;;;13.37;;
16133;SDS011;8172;45.018;5.972;2023-05-19T02:17:13;47.43;;;13.40;;
16133;SDS011;8172;45.018;5.972;2023-05-19T02:22:26;30.43;;;12.83;;
16133;SDS011;8172;45.018;5.972;2023-05-19T02:27:33;22.03;;;13.33;;
16133;SDS011;8172;45.018;5.972;2023-05-19T02:32:41;17.70;;;13.47;;
16133;SDS011;8172;45.018;5.972;2023-05-19T02:37:52;34.13;;;13.53;;
16133;SDS011;8172;45.018;5.972;2023-05-19T02:43:00;16.90;;;12.83;;
16133;SDS011;8172;45.018;5.972;2023-05-19T02:48:08;25.20;;;12.60;;
16133;SDS011;8172;45.018;5.972;2023-05-19T02:53:15;129.23;;;15.97;;
16133;SDS011;8172;45.018;5.972;2023-05-19T02:58:22;15.50;;;12.17;;
16133;SDS011;8172;45.018;5.972;2023-05-19T03:03:29;22.73;;;11.80;;
16133;SDS011;8172;45.018;5.972;2023-05-19T03:08:37;123.77;;;15.27;;
16133;SDS011;8172;45.018;5.972;2023-05-19T03:13:46;34.17;;;11.20;;
16133;SDS011;8172;45.018;5.972;2023-05-19T03:18:54;115.97;;;11.10;;
16133;SDS011;8172;45.018;5.972;2023-05-19T03:24:04;40.53;;;10.57;;
16133;SDS011;8172;45.018;5.972;2023-05-19T03:29:13;138.03;;;14.40;;
16133;SDS011;8172;45.018;5.972;2023-05-19T03:34:21;252.23;;;16.97;;
16133;SDS011;8172;45.018;5.972;2023-05-19T03:39:28;280.03;;;17.70;;
16133;SDS011;8172;45.018;5.972;2023-05-19T03:44:36;347.57;;;22.97;;
16133;SDS011;8172;45.018;5.972;2023-05-19T03:49:43;246.60;;;19.20;;
16133;SDS011;8172;45.018;5.972;2023-05-19T03:54:53;395.37;;;22.10;;
16133;SDS011;8172;45.018;5.972;2023-05-19T04:00:02;186.77;;;16.50;;
16133;SDS011;8172;45.018;5.972;2023-05-19T04:05:13;93.33;;;13.77;;
16133;SDS011;8172;45.018;5.972;2023-05-19T04:10:21;241.23;;;18.67;;
16133;SDS011;8172;45.018;5.972;2023-05-19T04:15:30;100.87;;;14.73;;
16133;SDS011;8172;45.018;5.972;2023-05-19T04:20:39;119.63;;;15.13;;
16133;SDS011;8172;45.018;5.972;2023-05-19T04:25:48;15.67;;;10.90;;
16133;SDS011;8172;45.018;5.972;2023-05-19T04:30:59;33.53;;;11.40;;
16133;SDS011;8172;45.018;5.972;2023-05-19T04:36:08;41.40;;;11.63;;
16133;SDS011;8172;45.018;5.972;2023-05-19T04:41:17;67.80;;;12.40;;
16133;SDS011;8172;45.018;5.972;2023-05-19T04:46:26;14.60;;;10.87;;
16133;SDS011;8172;45.018;5.972;2023-05-19T04:51:35;23.30;;;11.10;;
16133;SDS011;8172;45.018;5.972;2023-05-19T04:56:45;24.07;;;10.97;;
16133;SDS011;8172;45.018;5.972;2023-05-19T05:01:54;24.07;;;9.73;;
16133;SDS011;8172;45.018;5.972;2023-05-19T05:07:04;14.23;;;10.70;;
16133;SDS011;8172;45.018;5.972;2023-05-19T05:12:12;12.37;;;10.10;;
16133;SDS011;8172;45.018;5.972;2023-05-19T05:17:22;11.70;;;9.43;;
16133;SDS011;8172;45.018;5.972;2023-05-19T05:22:30;11.50;;;9.23;;
16133;SDS011;8172;45.018;5.972;2023-05-19T05:33:15;10.93;;;9.17;;
16133;SDS011;8172;45.018;5.972;2023-05-19T05:38:26;10.47;;;8.63;;
16133;SDS011;8172;45.018;5.972;2023-05-19T05:43:36;253.67;;;15.63;;
16133;SDS011;8172;45.018;5.972;2023-05-19T05:48:45;225.77;;;14.53;;
16133;SDS011;8172;45.018;5.972;2023-05-19T05:53:54;77.50;;;10.43;;
16133;SDS011;8172;45.018;5.972;2023-05-19T05:59:06;12.67;;;9.53;;
16133;SDS011;8172;45.018;5.972;2023-05-19T06:04:17;10.53;;;8.67;;
16133;SDS011;8172;45.018;5.972;2023-05-19T06:09:42;11.10;;;9.30;;
16133;SDS011;8172;45.018;5.972;2023-05-19T06:14:51;10.83;;;8.40;;
16133;SDS011;8172;45.018;5.972;2023-05-19T06:20:04;11.87;;;9.37;;
16133;SDS011;8172;45.018;5.972;2023-05-19T06:25:16;109.63;;;12.63;;
16133;SDS011;8172;45.018;5.972;2023-05-19T06:30:27;20.73;;;10.50;;
16133;SDS011;8172;45.018;5.972;2023-05-19T06:35:38;12.07;;;9.13;;
16133;SDS011;8172;45.018;5.972;2023-05-19T06:40:48;10.33;;;8.93;;
16133;SDS011;8172;45.018;5.972;2023-05-19T06:45:57;12.13;;;9.73;;
16133;SDS011;8172;45.018;5.972;2023-05-19T06:51:08;11.23;;;9.43;;
16133;SDS011;8172;45.018;5.972;2023-05-19T06:56:19;13.67;;;10.23;;
16133;SDS011;8172;45.018;5.972;2023-05-19T07:01:29;11.00;;;9.00;;
16133;SDS011;8172;45.018;5.972;2023-05-19T07:06:43;10.53;;;8.17;;
16133;SDS011;8172;45.018;5.972;2023-05-19T07:11:55;9.50;;;7.87;;
16133;SDS011;8172;45.018;5.972;2023-05-19T07:17:07;11.97;;;9.27;;
16133;SDS011;8172;45.018;5.972;2023-05-19T07:22:18;12.53;;;9.57;;
16133;SDS011;8172;45.018;5.972;2023-05-19T07:27:32;12.20;;;10.07;;
16133;SDS011;8172;45.018;5.972;2023-05-19T07:32:43;15.03;;;12.27;;
16133;SDS011;8172;45.018;5.972;2023-05-19T07:37:52;14.03;;;11.73;;
16133;SDS011;8172;45.018;5.972;2023-05-19T07:43:03;16.90;;;12.30;;
16133;SDS011;8172;45.018;5.972;2023-05-19T07:48:11;13.43;;;10.67;;
16133;SDS011;8172;45.018;5.972;2023-05-19T07:53:20;12.23;;;9.87;;
16133;SDS011;8172;45.018;5.972;2023-05-19T07:58:30;12.63;;;10.20;;
16133;SDS011;8172;45.018;5.972;2023-05-19T08:03:40;11.77;;;7.00;;
16133;SDS011;8172;45.018;5.972;2023-05-19T08:08:52;9.70;;;7.73;;
16133;SDS011;8172;45.018;5.972;2023-05-19T08:14:00;10.33;;;7.47;;
16133;SDS011;8172;45.018;5.972;2023-05-19T08:19:08;6.80;;;6.10;;
16133;SDS011;8172;45.018;5.972;2023-05-19T08:24:16;9.27;;;7.10;;
16133;SDS011;8172;45.018;5.972;2023-05-19T08:29:24;7.30;;;6.37;;
16133;SDS011;8172;45.018;5.972;2023-05-19T08:34:32;7.77;;;6.97;;
16133;SDS011;8172;45.018;5.972;2023-05-19T08:39:41;9.20;;;7.47;;
16133;SDS011;8172;45.018;5.972;2023-05-19T08:44:49;5.90;;;5.30;;
16133;SDS011;8172;45.018;5.972;2023-05-19T08:50:00;6.23;;;4.70;;
16133;SDS011;8172;45.018;5.972;2023-05-19T08:55:10;6.07;;;4.70;;
16133;SDS011;8172;45.018;5.972;2023-05-19T09:00:22;7.20;;;6.50;;
16133;SDS011;8172;45.018;5.972;2023-05-19T09:05:33;6.97;;;6.20;;
16133;SDS011;8172;45.018;5.972;2023-05-19T09:10:44;8.27;;;6.40;;
16133;SDS011;8172;45.018;5.972;2023-05-19T09:15:54;7.23;;;5.50;;
16133;SDS011;8172;45.018;5.972;2023-05-19T09:21:04;7.37;;;6.13;;
16133;SDS011;8172;45.018;5.972;2023-05-19T09:26:13;7.30;;;6.07;;
16133;SDS011;8172;45.018;5.972;2023-05-19T09:31:22;7.17;;;6.47;;
16133;SDS011;8172;45.018;5.972;2023-05-19T09:36:37;8.57;;;6.53;;
16133;SDS011;8172;45.018;5.972;2023-05-19T09:41:46;6.57;;;5.93;;
16133;SDS011;8172;45.018;5.972;2023-05-19T09:46:56;7.93;;;6.50;;
16133;SDS011;8172;45.018;5.972;2023-05-19T09:52:05;9.27;;;6.93;;
16133;SDS011;8172;45.018;5.972;2023-05-19T09:57:16;7.07;;;6.37;;
16133;SDS011;8172;45.018;5.972;2023-05-19T10:02:31;9.70;;;7.23;;
16133;SDS011;8172;45.018;5.972;2023-05-19T10:08:04;9.17;;;6.80;;
16133;SDS011;8172;45.018;5.972;2023-05-19T10:13:36;9.67;;;6.80;;
16133;SDS011;8172;45.018;5.972;2023-05-19T10:19:11;10.43;;;7.60;;
16133;SDS011;8172;45.018;5.972;2023-05-19T10:24:22;8.10;;;7.17;;
16133;SDS011;8172;45.018;5.972;2023-05-19T10:29:35;8.17;;;7.03;;
16133;SDS011;8172;45.018;5.972;2023-05-19T10:39:57;8.00;;;6.93;;
16133;SDS011;8172;45.018;5.972;2023-05-19T10:45:09;8.40;;;7.50;;
16133;SDS011;8172;45.018;5.972;2023-05-19T10:50:20;9.57;;;8.00;;
16133;SDS011;8172;45.018;5.972;2023-05-19T11:01:11;8.97;;;7.60;;
16133;SDS011;8172;45.018;5.972;2023-05-19T11:16:44;11.60;;;8.13;;
16133;SDS011;8172;45.018;5.972;2023-05-19T11:21:54;11.83;;;8.37;;
16133;SDS011;8172;45.018;5.972;2023-05-19T11:32:19;11.43;;;8.30;;
16133;SDS011;8172;45.018;5.972;2023-05-19T11:37:30;11.00;;;8.70;;
16133;SDS011;8172;45.018;5.972;2023-05-19T11:42:58;11.17;;;8.27;;
16133;SDS011;8172;45.018;5.972;2023-05-19T11:48:14;11.90;;;8.53;;
16133;SDS011;8172;45.018;5.972;2023-05-19T11:53:29;10.10;;;8.10;;
16133;SDS011;8172;45.018;5.972;2023-05-19T11:59:00;10.87;;;9.00;;
16133;SDS011;8172;45.018;5.972;2023-05-19T12:10:00;11.00;;;8.73;;
16133;SDS011;8172;45.018;5.972;2023-05-19T12:15:09;10.33;;;8.23;;
16133;SDS011;8172;45.018;5.972;2023-05-19T12:20:39;11.60;;;8.53;;
16133;SDS011;8172;45.018;5.972;2023-05-19T12:25:57;21.30;;;9.50;;
16133;SDS011;8172;45.018;5.972;2023-05-19T12:31:12;10.63;;;8.37;;
16133;SDS011;8172;45.018;5.972;2023-05-19T12:36:31;12.07;;;8.87;;
16133;SDS011;8172;45.018;5.972;2023-05-19T12:41:43;10.30;;;7.77;;
16133;SDS011;8172;45.018;5.972;2023-05-19T12:46:53;10.53;;;7.70;;
16133;SDS011;8172;45.018;5.972;2023-05-19T12:52:20;8.83;;;7.73;;
16133;SDS011;8172;45.018;5.972;2023-05-19T12:57:52;11.33;;;8.07;;
16133;SDS011;8172;45.018;5.972;2023-05-19T13:03:19;9.67;;;7.90;;
16133;SDS011;8172;45.018;5.972;2023-05-19T13:08:47;10.13;;;8.20;;
16133;SDS011;8172;45.018;5.972;2023-05-19T13:13:57;9.87;;;7.80;;
16133;SDS011;8172;45.018;5.972;2023-05-19T13:19:08;9.40;;;7.17;;
16133;SDS011;8172;45.018;5.972;2023-05-19T13:24:38;9.93;;;7.83;;
16133;SDS011;8172;45.018;5.972;2023-05-19T13:30:06;9.07;;;7.67;;
16133;SDS011;8172;45.018;5.972;2023-05-19T13:35:43;12.23;;;7.97;;
16133;SDS011;8172;45.018;5.972;2023-05-19T13:40:51;9.87;;;7.93;;
16133;SDS011;8172;45.018;5.972;2023-05-19T13:46:22;10.70;;;8.47;;
16133;SDS011;8172;45.018;5.972;2023-05-19T13:51:54;9.57;;;7.80;;
16133;SDS011;8172;45.018;5.972;2023-05-19T13:57:19;8.77;;;7.57;;
16133;SDS011;8172;45.018;5.972;2023-05-19T14:02:42;10.67;;;7.50;;
16133;SDS011;8172;45.018;5.972;2023-05-19T14:07:53;9.80;;;7.60;;
16133;SDS011;8172;45.018;5.972;2023-05-19T14:13:18;10.83;;;8.03;;
16133;SDS011;8172;45.018;5.972;2023-05-19T14:18:30;12.03;;;9.00;;
16133;SDS011;8172;45.018;5.972;2023-05-19T14:23:53;10.87;;;8.47;;
16133;SDS011;8172;45.018;5.972;2023-05-19T14:29:02;9.73;;;7.80;;
16133;SDS011;8172;45.018;5.972;2023-05-19T14:34:12;11.47;;;8.77;;
16133;SDS011;8172;45.018;5.972;2023-05-19T14:39:28;15.00;;;9.87;;
16133;SDS011;8172;45.018;5.972;2023-05-19T14:44:56;11.33;;;7.87;;
16133;SDS011;8172;45.018;5.972;2023-05-19T14:50:05;10.03;;;7.53;;
16133;SDS011;8172;45.018;5.972;2023-05-19T14:55:17;11.47;;;7.37;;
16133;SDS011;8172;45.018;5.972;2023-05-19T15:00:29;11.27;;;8.00;;
16133;SDS011;8172;45.018;5.972;2023-05-19T15:05:40;10.10;;;8.07;;
16133;SDS011;8172;45.018;5.972;2023-05-19T15:10:49;12.63;;;8.83;;
16133;SDS011;8172;45.018;5.972;2023-05-19T15:15:59;11.60;;;8.37;;
16133;SDS011;8172;45.018;5.972;2023-05-19T15:21:12;10.03;;;8.50;;
16133;SDS011;8172;45.018;5.972;2023-05-19T15:26:22;13.30;;;9.03;;
16133;SDS011;8172;45.018;5.972;2023-05-19T15:31:34;13.43;;;9.53;;
16133;SDS011;8172;45.018;5.972;2023-05-19T15:36:44;13.53;;;9.10;;
16133;SDS011;8172;45.018;5.972;2023-05-19T15:41:54;12.80;;;9.33;;
16133;SDS011;8172;45.018;5.972;2023-05-19T15:47:03;12.87;;;9.93;;
16133;SDS011;8172;45.018;5.972;2023-05-19T15:52:14;15.63;;;9.37;;
16133;SDS011;8172;45.018;5.972;2023-05-19T15:57:27;12.83;;;10.00;;
16133;SDS011;8172;45.018;5.972;2023-05-19T16:02:37;15.03;;;9.53;;
16133;SDS011;8172;45.018;5.972;2023-05-19T16:07:46;13.23;;;10.00;;
16133;SDS011;8172;45.018;5.972;2023-05-19T16:12:54;13.50;;;9.60;;
16133;SDS011;8172;45.018;5.972;2023-05-19T16:18:04;15.23;;;12.50;;
16133;SDS011;8172;45.018;5.972;2023-05-19T16:23:14;12.27;;;10.23;;
16133;SDS011;8172;45.018;5.972;2023-05-19T16:28:25;11.80;;;9.53;;
16133;SDS011;8172;45.018;5.972;2023-05-19T16:33:36;14.43;;;11.00;;
16133;SDS011;8172;45.018;5.972;2023-05-19T16:38:58;15.60;;;10.90;;
16133;SDS011;8172;45.018;5.972;2023-05-19T16:44:13;14.40;;;10.53;;
16133;SDS011;8172;45.018;5.972;2023-05-19T16:49:33;15.17;;;10.83;;
16133;SDS011;8172;45.018;5.972;2023-05-19T16:54:44;15.23;;;10.67;;
16133;SDS011;8172;45.018;5.972;2023-05-19T16:59:55;15.97;;;11.60;;
16133;SDS011;8172;45.018;5.972;2023-05-19T17:05:05;15.17;;;11.50;;
16133;SDS011;8172;45.018;5.972;2023-05-19T17:10:18;15.87;;;12.30;;
16133;SDS011;8172;45.018;5.972;2023-05-19T17:15:28;17.87;;;12.20;;
16133;SDS011;8172;45.018;5.972;2023-05-19T17:20:38;16.07;;;11.57;;
16133;SDS011;8172;45.018;5.972;2023-05-19T17:25:52;15.30;;;11.47;;
16133;SDS011;8172;45.018;5.972;2023-05-19T17:36:18;20.33;;;13.27;;
16133;SDS011;8172;45.018;5.972;2023-05-19T17:41:30;18.30;;;12.60;;
16133;SDS011;8172;45.018;5.972;2023-05-19T17:46:39;17.87;;;12.63;;
16133;SDS011;8172;45.018;5.972;2023-05-19T17:51:49;21.57;;;13.27;;
16133;SDS011;8172;45.018;5.972;2023-05-19T17:56:59;16.17;;;12.90;;
16133;SDS011;8172;45.018;5.972;2023-05-19T18:02:21;16.30;;;11.93;;
16133;SDS011;8172;45.018;5.972;2023-05-19T18:07:31;17.07;;;12.90;;
16133;SDS011;8172;45.018;5.972;2023-05-19T18:12:42;15.13;;;11.83;;
16133;SDS011;8172;45.018;5.972;2023-05-19T18:17:51;16.50;;;12.43;;
16133;SDS011;8172;45.018;5.972;2023-05-19T18:23:00;20.47;;;13.10;;
16133;SDS011;8172;45.018;5.972;2023-05-19T18:28:09;17.33;;;13.37;;
16133;SDS011;8172;45.018;5.972;2023-05-19T18:33:18;19.73;;;14.73;;
16133;SDS011;8172;45.018;5.972;2023-05-19T18:38:30;18.83;;;14.20;;
16133;SDS011;8172;45.018;5.972;2023-05-19T18:43:41;22.63;;;14.97;;
16133;SDS011;8172;45.018;5.972;2023-05-19T18:48:50;21.27;;;15.17;;
16133;SDS011;8172;45.018;5.972;2023-05-19T18:54:00;21.63;;;13.90;;
16133;SDS011;8172;45.018;5.972;2023-05-19T18:59:09;18.00;;;13.37;;
16133;SDS011;8172;45.018;5.972;2023-05-19T19:04:19;21.00;;;15.00;;
16133;SDS011;8172;45.018;5.972;2023-05-19T19:09:31;19.13;;;13.83;;
16133;SDS011;8172;45.018;5.972;2023-05-19T19:14:42;138.27;;;73.73;;
16133;SDS011;8172;45.018;5.972;2023-05-19T19:19:55;14.97;;;11.93;;
16133;SDS011;8172;45.018;5.972;2023-05-19T19:25:08;18.53;;;13.73;;
16133;SDS011;8172;45.018;5.972;2023-05-19T19:30:19;15.10;;;11.87;;
16133;SDS011;8172;45.018;5.972;2023-05-19T19:35:29;17.70;;;13.10;;
16133;SDS011;8172;45.018;5.972;2023-05-19T19:40:41;14.40;;;11.13;;
16133;SDS011;8172;45.018;5.972;2023-05-19T19:51:03;15.63;;;11.03;;
16133;SDS011;8172;45.018;5.972;2023-05-19T19:56:13;16.77;;;11.20;;
16133;SDS011;8172;45.018;5.972;2023-05-19T20:01:22;14.87;;;11.43;;
16133;SDS011;8172;45.018;5.972;2023-05-19T20:06:33;13.13;;;10.47;;
16133;SDS011;8172;45.018;5.972;2023-05-19T20:11:45;11.57;;;9.97;;
16133;SDS011;8172;45.018;5.972;2023-05-19T20:16:59;13.67;;;10.97;;
16133;SDS011;8172;45.018;5.972;2023-05-19T20:22:10;13.30;;;11.47;;
16133;SDS011;8172;45.018;5.972;2023-05-19T20:27:21;12.10;;;10.60;;
16133;SDS011;8172;45.018;5.972;2023-05-19T20:32:30;13.60;;;12.20;;
16133;SDS011;8172;45.018;5.972;2023-05-19T20:37:40;22.70;;;11.30;;
16133;SDS011;8172;45.018;5.972;2023-05-19T20:42:50;11.83;;;10.63;;
16133;SDS011;8172;45.018;5.972;2023-05-19T20:48:00;11.60;;;10.40;;
16133;SDS011;8172;45.018;5.972;2023-05-19T20:53:10;74.17;;;12.37;;
16133;SDS011;8172;45.018;5.972;2023-05-19T20:58:20;13.70;;;11.10;;
16133;SDS011;8172;45.018;5.972;2023-05-19T21:03:34;28.33;;;12.40;;
16133;SDS011;8172;45.018;5.972;2023-05-19T21:08:43;263.40;;;19.73;;
16133;SDS011;8172;45.018;5.972;2023-05-19T21:13:53;119.50;;;14.90;;
16133;SDS011;8172;45.018;5.972;2023-05-19T21:19:03;51.97;;;13.27;;
16133;SDS011;8172;45.018;5.972;2023-05-19T21:24:16;16.93;;;12.73;;
16133;SDS011;8172;45.018;5.972;2023-05-19T21:29:24;14.87;;;11.27;;
16133;SDS011;8172;45.018;5.972;2023-05-19T21:34:34;14.00;;;12.13;;
16133;SDS011;8172;45.018;5.972;2023-05-19T21:39:47;13.33;;;10.87;;
16133;SDS011;8172;45.018;5.972;2023-05-19T21:44:58;9.50;;;8.33;;
16133;SDS011;8172;45.018;5.972;2023-05-19T21:50:10;12.43;;;9.37;;
16133;SDS011;8172;45.018;5.972;2023-05-19T21:55:28;8.97;;;8.07;;
16133;SDS011;8172;45.018;5.972;2023-05-19T22:00:37;7.30;;;6.40;;
16133;SDS011;8172;45.018;5.972;2023-05-19T22:05:48;9.10;;;7.10;;
16133;SDS011;8172;45.018;5.972;2023-05-19T22:10:57;11.23;;;7.27;;
16133;SDS011;8172;45.018;5.972;2023-05-19T22:16:07;11.47;;;8.57;;
16133;SDS011;8172;45.018;5.972;2023-05-19T22:21:15;14.43;;;8.73;;
16133;SDS011;8172;45.018;5.972;2023-05-19T22:26:25;10.57;;;8.47;;
16133;SDS011;8172;45.018;5.972;2023-05-19T22:31:35;10.63;;;8.37;;
16133;SDS011;8172;45.018;5.972;2023-05-19T22:36:45;14.27;;;9.07;;
16133;SDS011;8172;45.018;5.972;2023-05-19T22:41:55;12.30;;;8.93;;
16133;SDS011;8172;45.018;5.972;2023-05-19T22:47:04;10.80;;;8.87;;
16133;SDS011;8172;45.018;5.972;2023-05-19T22:52:16;11.10;;;8.47;;
16133;SDS011;8172;45.018;5.972;2023-05-19T22:57:26;10.07;;;8.27;;
16133;SDS011;8172;45.018;5.972;2023-05-19T23:02:35;8.13;;;7.27;;
16133;SDS011;8172;45.018;5.972;2023-05-19T23:07:46;8.80;;;7.53;;
16133;SDS011;8172;45.018;5.972;2023-05-19T23:12:58;7.77;;;6.53;;
16133;SDS011;8172;45.018;5.972;2023-05-19T23:18:07;9.73;;;7.10;;
16133;SDS011;8172;45.018;5.972;2023-05-19T23:23:16;8.90;;;5.93;;
16133;SDS011;8172;45.018;5.972;2023-05-19T23:28:27;7.90;;;6.37;;
16133;SDS011;8172;45.018;5.972;2023-05-19T23:33:35;5.77;;;5.10;;
16133;SDS011;8172;45.018;5.972;2023-05-19T23:38:43;6.53;;;5.70;;
16133;SDS011;8172;45.018;5.972;2023-05-19T23:43:53;5.40;;;4.50;;
16133;SDS011;8172;45.018;5.972;2023-05-19T23:49:05;8.50;;;5.50;;
16133;SDS011;8172;45.018;5.972;2023-05-19T23:54:13;5.20;;;4.70;;
16133;SDS011;8172;45.018;5.972;2023-05-19T23:59:24;7.43;;;5.20;;
